createdAt,value
2019-02-10T00:00:51.545Z,77.27
2019-02-10T00:03:22.100Z,77.21
2019-02-10T00:05:52.628Z,76.92
2019-02-10T00:08:23.179Z,76.85
2019-02-10T00:10:53.706Z,76.83
2019-02-10T00:13:38.351Z,77.12
2019-02-10T00:16:18.209Z,77.28
2019-02-10T00:18:48.900Z,77.32
2019-02-10T00:21:19.375Z,77.42
2019-02-10T00:23:49.934Z,77.20
2019-02-10T00:26:20.443Z,77.51
2019-02-10T00:28:50.949Z,77.93
2019-02-10T00:31:21.531Z,77.90
2019-02-10T00:33:52.070Z,77.69
2019-02-10T00:36:22.590Z,77.74
2019-02-10T00:38:53.179Z,77.76
2019-02-10T00:41:23.757Z,78.30
2019-02-10T00:43:54.411Z,78.19
2019-02-10T00:46:25.002Z,78.98
2019-02-10T00:48:55.532Z,80.80
2019-02-10T00:51:26.115Z,81.91
2019-02-10T00:53:56.602Z,83.28
2019-02-10T00:56:27.144Z,83.85
2019-02-10T00:58:57.673Z,84.10
2019-02-10T01:01:28.220Z,84.52
2019-02-10T01:03:58.815Z,84.10
2019-02-10T01:06:29.529Z,84.62
2019-02-10T01:09:00.033Z,85.01
2019-02-10T01:11:30.519Z,84.54
2019-02-10T01:14:01.192Z,85.04
2019-02-10T01:16:31.667Z,84.54
2019-02-10T01:19:19.420Z,84.58
2019-02-10T01:21:49.919Z,84.30
2019-02-10T01:24:20.501Z,84.15
2019-02-10T01:26:50.991Z,83.88
2019-02-10T01:29:21.912Z,83.93
2019-02-10T01:31:52.694Z,83.90
2019-02-10T01:34:23.253Z,84.14
2019-02-10T01:36:54.344Z,84.50
2019-02-10T01:39:25.055Z,84.29
2019-02-10T01:41:56.144Z,84.50
2019-02-10T01:44:26.594Z,84.65
2019-02-10T01:46:57.153Z,85.10
2019-02-10T01:49:27.685Z,85.04
2019-02-10T01:51:58.189Z,85.11
2019-02-10T01:54:28.782Z,84.69
2019-02-10T01:56:59.297Z,84.51
2019-02-10T01:59:29.830Z,84.27
2019-02-10T02:02:00.464Z,84.65
2019-02-10T02:04:31.021Z,84.82
2019-02-10T02:07:01.566Z,84.47
2019-02-10T02:09:31.988Z,84.45
2019-02-10T02:12:02.527Z,84.23
2019-02-10T02:14:32.966Z,84.07
2019-02-10T02:17:03.526Z,83.81
2019-02-10T02:19:34.054Z,83.89
2019-02-10T02:22:04.609Z,84.01
2019-02-10T02:24:35.132Z,83.82
2019-02-10T02:27:05.630Z,83.95
2019-02-10T02:29:36.112Z,84.05
2019-02-10T02:32:06.700Z,84.02
2019-02-10T02:34:37.189Z,83.45
2019-02-10T02:37:08.393Z,83.58
2019-02-10T02:39:39.025Z,83.72
2019-02-10T02:42:09.544Z,83.56
2019-02-10T02:44:40.064Z,83.37
2019-02-10T02:47:10.625Z,83.66
2019-02-10T02:49:41.110Z,83.85
2019-02-10T02:52:11.603Z,83.78
2019-02-10T02:54:42.141Z,84.07
2019-02-10T02:57:12.697Z,84.08
2019-02-10T02:59:43.283Z,84.11
2019-02-10T03:02:13.822Z,83.83
2019-02-10T03:04:44.311Z,83.83
2019-02-10T03:07:17.998Z,83.88
2019-02-10T03:09:47.114Z,83.68
2019-02-10T03:12:17.609Z,83.73
2019-02-10T03:14:48.104Z,83.96
2019-02-10T03:17:18.652Z,83.96
2019-02-10T03:19:49.178Z,83.53
2019-02-10T03:22:19.744Z,83.59
2019-02-10T03:24:50.358Z,83.45
2019-02-10T03:27:20.942Z,83.60
2019-02-10T03:29:51.474Z,83.86
2019-02-10T03:32:21.989Z,83.50
2019-02-10T03:34:52.474Z,83.46
2019-02-10T03:37:27.287Z,82.87
2019-02-10T03:39:55.256Z,82.69
2019-02-10T03:42:25.776Z,82.66
2019-02-10T03:44:56.304Z,83.12
2019-02-10T03:47:26.811Z,83.17
2019-02-10T03:49:57.404Z,83.30
2019-02-10T03:52:27.864Z,83.48
2019-02-10T03:54:58.378Z,83.17
2019-02-10T03:57:28.941Z,83.12
2019-02-10T03:59:59.448Z,83.35
2019-02-10T04:02:29.977Z,83.62
2019-02-10T04:05:00.579Z,83.49
2019-02-10T04:07:36.155Z,83.54
2019-02-10T04:10:03.294Z,83.36
2019-02-10T04:12:33.768Z,83.29
2019-02-10T04:15:04.535Z,83.37
2019-02-10T04:17:35.010Z,83.32
2019-02-10T04:20:05.842Z,82.93
2019-02-10T04:22:36.377Z,82.59
2019-02-10T04:25:06.952Z,82.46
2019-02-10T04:27:37.495Z,82.59
2019-02-10T04:30:09.285Z,82.75
2019-02-10T04:32:40.175Z,82.65
2019-02-10T04:35:10.682Z,81.89
2019-02-10T04:37:45.918Z,82.04
2019-02-10T04:40:13.418Z,81.60
2019-02-10T04:42:44.060Z,81.61
2019-02-10T04:45:14.575Z,81.14
2019-02-10T04:47:45.055Z,81.05
2019-02-10T04:50:15.533Z,81.12
2019-02-10T04:52:46.086Z,80.83
2019-02-10T04:55:16.560Z,80.71
2019-02-10T04:57:47.078Z,80.92
2019-02-10T05:00:17.683Z,80.67
2019-02-10T05:02:48.192Z,80.63
2019-02-10T05:05:18.687Z,80.45
2019-02-10T05:07:54.384Z,80.12
2019-02-10T05:10:21.850Z,80.46
2019-02-10T05:12:52.410Z,80.17
2019-02-10T05:15:23.089Z,80.10
2019-02-10T05:17:53.695Z,80.22
2019-02-10T05:20:24.223Z,80.10
2019-02-10T05:22:54.738Z,80.22
2019-02-10T05:25:25.273Z,80.27
2019-02-10T05:27:55.763Z,80.21
2019-02-10T05:30:26.226Z,80.49
2019-02-10T05:32:56.845Z,80.21
2019-02-10T05:35:27.366Z,80.66
2019-02-10T05:38:03.924Z,81.16
2019-02-10T05:40:30.145Z,80.63
2019-02-10T05:43:00.648Z,80.50
2019-02-10T05:45:31.194Z,80.38
2019-02-10T05:48:01.714Z,80.50
2019-02-10T05:50:32.312Z,79.75
2019-02-10T05:53:02.793Z,79.90
2019-02-10T05:55:33.367Z,79.65
2019-02-10T05:58:03.867Z,80.03
2019-02-10T06:00:34.434Z,80.36
2019-02-10T06:03:04.961Z,80.31
2019-02-10T06:05:35.650Z,79.96
2019-02-10T06:08:12.893Z,79.98
2019-02-10T06:10:38.460Z,80.22
2019-02-10T06:13:08.981Z,80.12
2019-02-10T06:15:39.593Z,79.32
2019-02-10T06:18:10.118Z,79.29
2019-02-10T06:20:40.699Z,79.54
2019-02-10T06:23:11.242Z,80.07
2019-02-10T06:25:42.429Z,79.71
2019-02-10T06:28:13.008Z,80.11
2019-02-10T06:30:43.665Z,81.17
2019-02-10T06:33:14.252Z,81.72
2019-02-10T06:35:44.735Z,82.75
2019-02-10T06:38:22.156Z,82.92
2019-02-10T06:40:47.616Z,83.57
2019-02-10T06:43:18.216Z,84.12
2019-02-10T06:45:48.714Z,84.85
2019-02-10T06:48:19.161Z,85.86
2019-02-10T06:50:49.812Z,86.69
2019-02-10T06:53:20.318Z,87.21
2019-02-10T06:55:50.724Z,86.47
2019-02-10T06:58:21.059Z,86.02
2019-02-10T07:01:09.330Z,86.57
2019-02-10T07:04:02.525Z,86.58
2019-02-10T07:06:33.087Z,86.84
2019-02-10T07:09:04.421Z,87.31
2019-02-10T07:11:34.887Z,86.69
2019-02-10T07:14:15.649Z,87.17
2019-02-10T07:17:22.309Z,86.59
2019-02-10T07:20:55.392Z,88.00
2019-02-10T07:23:58.666Z,88.08
2019-02-10T07:27:05.864Z,88.06
2019-02-10T07:30:19.915Z,87.75
2019-02-10T07:32:52.266Z,88.05
2019-02-10T07:36:36.649Z,88.76
2019-02-10T07:40:02.198Z,88.19
2019-02-10T07:43:42.574Z,88.90
2019-02-10T07:47:02.614Z,89.04
2019-02-10T07:50:14.281Z,88.81
2019-02-10T07:53:26.874Z,88.72
2019-02-10T07:57:03.689Z,88.88
2019-02-10T08:00:38.490Z,89.12
2019-02-10T08:04:17.187Z,89.40
2019-02-10T08:07:53.097Z,89.80
2019-02-10T08:11:47.603Z,90.33
2019-02-10T08:15:01.675Z,90.36
2019-02-10T08:18:18.671Z,90.46
2019-02-10T08:21:21.931Z,90.70
2019-02-10T08:24:23.578Z,90.95
2019-02-10T08:27:29.656Z,91.01
2019-02-10T08:30:49.394Z,91.19
2019-02-10T08:34:17.955Z,91.57
2019-02-10T08:37:14.706Z,91.30
2019-02-10T08:40:30.807Z,91.91
2019-02-10T08:43:58.316Z,92.30
2019-02-10T08:46:58.554Z,92.45
2019-02-10T08:50:32.984Z,92.70
2019-02-10T08:53:09.836Z,92.86
2019-02-10T08:55:40.392Z,93.34
2019-02-10T08:58:10.906Z,93.57
2019-02-10T09:00:41.370Z,93.43
2019-02-10T09:03:19.241Z,93.11
2019-02-10T09:05:44.020Z,93.18
2019-02-10T09:08:14.499Z,93.17
2019-02-10T09:10:45.001Z,92.49
2019-02-10T09:13:15.581Z,92.76
2019-02-10T09:15:46.117Z,92.53
2019-02-10T09:18:16.599Z,92.87
2019-02-10T09:20:47.146Z,92.99
2019-02-10T09:23:17.691Z,92.93
2019-02-10T09:25:48.208Z,93.27
2019-02-10T09:28:18.694Z,93.66
2019-02-10T09:30:49.226Z,93.90
2019-02-10T09:33:19.699Z,94.37
2019-02-10T09:35:50.201Z,94.52
2019-02-10T09:38:20.709Z,94.93
2019-02-10T09:40:51.145Z,94.42
2019-02-10T09:43:21.607Z,94.60
2019-02-10T09:45:52.178Z,95.03
2019-02-10T09:48:22.671Z,95.42
2019-02-10T09:50:53.154Z,95.58
2019-02-10T09:53:23.779Z,95.53
2019-02-10T09:55:54.245Z,95.73
2019-02-10T09:58:24.756Z,95.88
2019-02-10T10:00:55.260Z,96.01
2019-02-10T10:03:25.826Z,96.24
2019-02-10T10:05:56.345Z,96.21
2019-02-10T10:08:26.929Z,96.29
2019-02-10T10:10:57.484Z,96.50
2019-02-10T10:13:27.934Z,96.60
2019-02-10T10:15:58.449Z,96.65
2019-02-10T10:18:29.004Z,96.70
2019-02-10T10:20:59.463Z,96.77
2019-02-10T10:23:30.800Z,96.82
2019-02-10T10:26:01.347Z,96.69
2019-02-10T10:28:31.848Z,96.60
2019-02-10T10:31:02.367Z,96.50
2019-02-10T10:33:32.887Z,96.34
2019-02-10T10:36:03.422Z,96.52
2019-02-10T10:38:33.919Z,96.66
2019-02-10T10:41:04.399Z,96.69
2019-02-10T10:43:34.914Z,96.63
2019-02-10T10:46:05.531Z,96.56
2019-02-10T10:48:35.998Z,96.71
2019-02-10T10:51:06.476Z,96.74
2019-02-10T10:53:36.990Z,96.93
2019-02-10T10:56:07.451Z,97.05
2019-02-10T10:58:37.928Z,97.00
2019-02-10T11:01:08.555Z,97.25
2019-02-10T11:03:39.082Z,97.37
2019-02-10T11:06:09.666Z,97.39
2019-02-10T11:08:40.250Z,97.39
2019-02-10T11:11:10.762Z,97.40
2019-02-10T11:13:41.243Z,97.36
2019-02-10T11:16:11.811Z,97.31
2019-02-10T11:18:42.290Z,97.18
2019-02-10T11:21:13.707Z,97.19
2019-02-10T11:23:44.370Z,97.37
2019-02-10T11:26:14.863Z,97.50
2019-02-10T11:28:45.373Z,97.50
2019-02-10T11:31:15.871Z,97.53
2019-02-10T11:33:46.454Z,97.37
2019-02-10T11:36:16.863Z,97.36
2019-02-10T11:38:47.391Z,97.47
2019-02-10T11:41:17.886Z,97.64
2019-02-10T11:43:49.594Z,97.70
2019-02-10T11:46:20.096Z,97.76
2019-02-10T11:48:50.612Z,97.73
2019-02-10T11:51:21.075Z,97.72
2019-02-10T11:54:02.824Z,97.69
2019-02-10T11:56:33.500Z,97.64
2019-02-10T11:59:04.811Z,97.67
2019-02-10T12:01:35.287Z,97.72
2019-02-10T12:04:05.830Z,97.66
2019-02-10T12:06:36.315Z,97.60
2019-02-10T12:09:08.010Z,97.64
2019-02-10T12:11:38.490Z,97.58
2019-02-10T12:14:09.019Z,97.50
2019-02-10T12:16:39.527Z,97.46
2019-02-10T12:19:10.286Z,97.52
2019-02-10T12:21:40.780Z,97.58
2019-02-10T12:24:11.369Z,97.62
2019-02-10T12:26:42.064Z,97.69
2019-02-10T12:29:12.630Z,97.60
2019-02-10T12:31:43.200Z,97.58
2019-02-10T12:34:13.655Z,97.63
2019-02-10T12:36:44.126Z,97.72
2019-02-10T12:39:14.706Z,97.78
2019-02-10T12:41:45.170Z,97.85
2019-02-10T12:44:16.021Z,97.76
2019-02-10T12:46:46.520Z,97.72
2019-02-10T12:49:16.954Z,97.63
2019-02-10T12:51:47.412Z,97.70
2019-02-10T12:54:18.089Z,97.73
2019-02-10T12:56:48.557Z,97.86
2019-02-10T12:59:19.048Z,97.88
2019-02-10T13:01:49.535Z,97.85
2019-02-10T13:04:20.264Z,97.73
2019-02-10T13:06:50.733Z,97.49
2019-02-10T13:09:21.260Z,97.56
2019-02-10T13:11:58.307Z,97.72
2019-02-10T13:14:23.826Z,97.84
2019-02-10T13:16:54.373Z,97.90
2019-02-10T13:19:24.785Z,97.99
2019-02-10T13:21:55.258Z,97.98
2019-02-10T13:24:25.775Z,98.04
2019-02-10T13:26:56.346Z,98.07
2019-02-10T13:29:26.887Z,97.99
2019-02-10T13:31:57.815Z,98.05
2019-02-10T13:34:28.318Z,98.05
2019-02-10T13:37:06.071Z,98.10
2019-02-10T13:39:36.928Z,98.07
2019-02-10T13:42:07.579Z,98.07
2019-02-10T13:44:38.200Z,98.14
2019-02-10T13:47:08.865Z,98.17
2019-02-10T13:49:39.453Z,98.25
2019-02-10T13:52:10.117Z,98.32
2019-02-10T13:54:40.670Z,98.36
2019-02-10T13:57:11.383Z,98.38
2019-02-10T13:59:42.048Z,98.37
2019-02-10T14:02:12.672Z,98.39
2019-02-10T14:04:43.254Z,98.45
2019-02-10T14:07:13.803Z,98.43
2019-02-10T14:09:44.336Z,98.39
2019-02-10T14:12:14.858Z,98.38
2019-02-10T14:14:45.425Z,98.41
2019-02-10T14:17:16.021Z,98.45
2019-02-10T14:19:46.853Z,98.50
2019-02-10T14:22:17.610Z,98.53
2019-02-10T14:24:48.362Z,98.58
2019-02-10T14:27:18.965Z,98.64
2019-02-10T14:29:54.074Z,98.59
2019-02-10T14:32:25.384Z,98.58
2019-02-10T14:34:55.933Z,98.51
2019-02-10T14:37:26.481Z,98.46
2019-02-10T14:39:56.952Z,98.47
2019-02-10T14:42:27.634Z,98.50
2019-02-10T14:44:58.212Z,98.58
2019-02-10T14:47:28.724Z,98.63
2019-02-10T14:49:59.417Z,98.69
2019-02-10T14:52:30.025Z,98.75
2019-02-10T14:55:00.526Z,98.82
2019-02-10T14:57:31.064Z,98.87
2019-02-10T15:00:01.677Z,98.86
2019-02-10T15:02:32.229Z,98.95
2019-02-10T15:05:02.808Z,98.91
2019-02-10T15:07:33.359Z,98.85
2019-02-10T15:10:03.912Z,98.80
2019-02-10T15:12:34.471Z,98.75
2019-02-10T15:15:05.538Z,98.72
2019-02-10T15:17:36.090Z,98.64
2019-02-10T15:20:07.555Z,98.59
2019-02-10T15:22:38.073Z,98.61
2019-02-10T15:25:09.617Z,98.60
2019-02-10T15:27:40.104Z,98.49
2019-02-10T15:30:12.455Z,98.49
2019-02-10T15:32:42.978Z,98.50
2019-02-10T15:35:13.470Z,98.45
2019-02-10T15:37:44.015Z,98.44
2019-02-10T15:40:14.502Z,98.45
2019-02-10T15:42:44.985Z,98.40
2019-02-10T15:45:16.256Z,98.46
2019-02-10T15:47:46.745Z,98.43
2019-02-10T15:50:17.274Z,98.39
2019-02-10T15:52:47.691Z,98.43
2019-02-10T15:55:18.296Z,98.40
2019-02-10T15:57:48.883Z,98.42
2019-02-10T16:00:22.706Z,98.41
2019-02-10T16:02:53.376Z,98.36
2019-02-10T16:05:23.974Z,98.18
2019-02-10T16:07:54.616Z,97.64
2019-02-10T16:10:25.242Z,97.42
2019-02-10T16:12:55.927Z,97.38
2019-02-10T16:15:26.559Z,97.36
2019-02-10T16:17:57.571Z,97.41
2019-02-10T16:20:33.258Z,97.46
2019-02-10T16:23:04.866Z,97.66
2019-02-10T16:25:35.539Z,97.88
2019-02-10T16:28:06.722Z,98.06
2019-02-10T16:30:39.110Z,98.19
2019-02-10T16:33:09.909Z,98.17
2019-02-10T16:35:40.777Z,97.98
2019-02-10T16:38:11.398Z,97.32
2019-02-10T16:40:42.111Z,96.99
2019-02-10T16:43:12.694Z,96.80
2019-02-10T16:45:43.498Z,96.90
2019-02-10T16:48:14.209Z,96.83
2019-02-10T16:50:46.548Z,96.68
2019-02-10T16:53:18.132Z,96.73
2019-02-10T16:55:48.751Z,96.57
2019-02-10T16:58:19.332Z,96.65
2019-02-10T17:00:51.750Z,96.48
2019-02-10T17:03:22.280Z,96.51
2019-02-10T17:05:52.862Z,96.05
2019-02-10T17:08:23.433Z,96.15
2019-02-10T17:10:54.259Z,96.37
2019-02-10T17:13:24.954Z,96.49
2019-02-10T17:15:55.729Z,96.63
2019-02-10T17:18:26.568Z,96.54
2019-02-10T17:20:57.138Z,96.55
2019-02-10T17:23:27.708Z,96.27
2019-02-10T17:25:58.653Z,95.11
2019-02-10T17:28:30.785Z,95.35
2019-02-10T17:31:03.116Z,95.49
2019-02-10T17:33:34.171Z,95.53
2019-02-10T17:36:04.767Z,95.47
2019-02-10T17:38:35.372Z,95.73
2019-02-10T17:41:22.530Z,95.76
2019-02-10T17:43:47.735Z,95.76
2019-02-10T17:46:18.331Z,95.78
2019-02-10T17:48:48.893Z,96.15
2019-02-10T17:51:19.472Z,96.16
2019-02-10T17:53:50.002Z,96.29
2019-02-10T17:56:20.632Z,96.25
2019-02-10T17:58:51.224Z,96.18
2019-02-10T18:01:21.810Z,96.20
2019-02-10T18:03:52.508Z,95.97
2019-02-10T18:06:23.184Z,95.22
2019-02-10T18:08:53.732Z,95.46
2019-02-10T18:11:30.907Z,95.69
2019-02-10T18:13:56.844Z,95.80
2019-02-10T18:16:53.659Z,95.32
2019-02-10T18:19:41.055Z,95.63
2019-02-10T18:22:22.130Z,95.93
2019-02-10T18:25:11.167Z,96.09
2019-02-10T18:28:06.801Z,96.20
2019-02-10T18:31:02.167Z,96.06
2019-02-10T18:33:42.192Z,95.56
2019-02-10T18:36:30.675Z,95.55
2019-02-10T18:39:17.081Z,96.02
2019-02-10T18:42:06.580Z,95.70
2019-02-10T18:44:49.092Z,95.15
2019-02-10T18:47:25.623Z,94.72
2019-02-10T18:50:07.976Z,94.95
2019-02-10T18:53:00.613Z,94.20
2019-02-10T18:55:37.760Z,94.06
2019-02-10T18:58:54.440Z,94.88
2019-02-10T19:01:57.198Z,95.24
2019-02-10T19:04:50.168Z,95.03
2019-02-10T19:07:31.616Z,94.59
2019-02-10T19:10:12.557Z,94.50
2019-02-10T19:13:11.540Z,93.26
2019-02-10T19:16:00.615Z,93.47
2019-02-10T19:18:47.479Z,93.99
2019-02-10T19:21:23.804Z,94.26
2019-02-10T19:24:25.856Z,94.83
2019-02-10T19:27:18.491Z,94.43
2019-02-10T19:30:07.925Z,94.30
2019-02-10T19:33:03.176Z,95.35
2019-02-10T19:36:01.992Z,95.86
2019-02-10T19:38:42.269Z,95.76
2019-02-10T19:41:30.357Z,94.43
2019-02-10T19:44:31.975Z,94.50
2019-02-10T19:47:21.456Z,94.31
2019-02-10T19:50:05.684Z,94.45
2019-02-10T19:53:01.289Z,95.01
2019-02-10T19:55:45.093Z,95.09
2019-02-10T19:58:40.737Z,93.71
2019-02-10T20:01:29.287Z,93.99
2019-02-10T20:04:21.457Z,94.47
2019-02-10T20:07:04.587Z,94.44
2019-02-10T20:09:57.143Z,95.04
2019-02-10T20:12:55.473Z,94.94
2019-02-10T20:15:32.184Z,94.50
2019-02-10T20:18:30.821Z,94.68
2019-02-10T20:21:13.469Z,94.65
2019-02-10T20:23:53.850Z,95.26
2019-02-10T20:26:52.538Z,95.52
2019-02-10T20:29:50.570Z,95.74
2019-02-10T20:32:40.139Z,95.28
2019-02-10T20:35:26.861Z,95.76
2019-02-10T20:38:25.832Z,95.47
2019-02-10T20:41:17.677Z,94.95
2019-02-10T20:43:58.266Z,95.23
2019-02-10T20:46:35.645Z,95.57
2019-02-10T20:49:27.855Z,95.81
2019-02-10T20:52:20.476Z,95.93
2019-02-10T20:55:05.055Z,96.24
2019-02-10T20:58:07.937Z,96.45
2019-02-10T21:00:45.232Z,96.66
2019-02-10T21:03:33.543Z,96.70
2019-02-10T21:06:19.489Z,96.61
2019-02-10T21:09:08.854Z,96.54
2019-02-10T21:11:57.447Z,96.57
2019-02-10T21:14:50.060Z,96.74
2019-02-10T21:17:39.574Z,96.88
2019-02-10T21:20:27.776Z,97.05
2019-02-10T21:23:23.813Z,97.27
2019-02-10T21:26:03.238Z,97.38
2019-02-10T21:28:51.622Z,97.36
2019-02-10T21:31:39.802Z,97.43
2019-02-10T21:34:47.744Z,97.59
2019-02-10T21:37:26.339Z,97.70
2019-02-10T21:40:07.265Z,97.78
2019-02-10T21:42:50.433Z,97.77
2019-02-10T21:45:27.662Z,97.83
2019-02-10T21:48:26.239Z,97.83
2019-02-10T21:50:56.841Z,97.93
2019-02-10T21:53:46.495Z,98.08
2019-02-10T21:56:16.983Z,98.13
2019-02-10T21:58:47.447Z,98.25
2019-02-10T22:01:17.972Z,98.30
2019-02-10T22:03:48.464Z,98.31
2019-02-10T22:06:18.935Z,98.24
2019-02-10T22:08:49.441Z,98.23
2019-02-10T22:11:19.867Z,98.23
2019-02-10T22:13:50.377Z,98.32
2019-02-10T22:16:20.889Z,98.28
2019-02-10T22:18:51.490Z,98.32
2019-02-10T22:21:22.042Z,98.36
2019-02-10T22:23:52.546Z,98.40
2019-02-10T22:26:23.037Z,98.45
2019-02-10T22:28:53.554Z,98.49
2019-02-10T22:31:24.013Z,98.53
2019-02-10T22:33:54.569Z,98.59
2019-02-10T22:36:25.069Z,98.62
2019-02-10T22:38:55.543Z,98.71
2019-02-10T22:41:25.996Z,98.74
2019-02-10T22:43:56.555Z,98.78
2019-02-10T22:46:27.048Z,98.81
2019-02-10T22:48:57.545Z,98.85
2019-02-10T22:51:28.079Z,98.86
2019-02-10T22:53:58.632Z,98.87
2019-02-10T22:56:29.146Z,98.92
2019-02-10T22:58:59.588Z,98.95
2019-02-10T23:01:30.697Z,98.95
2019-02-10T23:04:01.176Z,98.90
2019-02-10T23:06:31.682Z,98.75
2019-02-10T23:09:03.021Z,98.54
2019-02-10T23:11:33.517Z,98.23
2019-02-10T23:14:04.089Z,97.81
2019-02-10T23:16:34.695Z,97.21
2019-02-10T23:19:05.192Z,96.80
2019-02-10T23:21:35.784Z,96.30
2019-02-10T23:24:07.625Z,96.19
2019-02-10T23:26:38.106Z,95.99
2019-02-10T23:29:08.604Z,95.94
2019-02-10T23:31:39.116Z,95.59
2019-02-10T23:34:09.580Z,95.30
2019-02-10T23:36:40.088Z,95.33
2019-02-10T23:39:10.584Z,95.16
2019-02-10T23:41:41.057Z,95.18
2019-02-10T23:44:11.662Z,95.14
2019-02-10T23:46:42.109Z,95.13
2019-02-10T23:49:12.629Z,95.00
2019-02-10T23:51:43.155Z,95.19
2019-02-10T23:54:13.633Z,95.32
2019-02-10T23:56:47.293Z,95.09
2019-02-10T23:59:16.328Z,94.85
